Saint Médard d'Aunis (17)                     Septembre 2022                                  
  Température (°C) - Abri Young à ventilation mécanique 43502 (moy/5min)  Davis 7714 (moy/1min) Humidité Vent Davis (km/h) PeetBros Instromet Précipitations (mm) Pression (hPa) Divers  
Date Maxi USCRN /5min Mini  USCRN /5min Moy de 1440 relevés Moy (tx+tn)/2 Index chaleur moyen Index chaleur maxi Froid dû au vent moy/5min  Froid dû au vent mini/5min   Amplitude (tx-tn) Tx OMM/1min Tn OMM/1min Moy de 1440 relevés Moy (tx+tn)/2 Relative maxi Relative mini Relative moy de 1440 relevés Relative moy (hx+hn)/2 Point de rosée maxi Point de rosée mini Point de rosée moy 1440 relevés Vent moy maxi (10min) Vent  moyen (24h) Direction dominante Rafales (km/h) maxi Direction rafale maxi Rafales moy (24h) Rafales (km/h)   maxi Rafales (km/h)   maxi Total du jour (mm) Durée en heures et dixièmes Intensité maxi sur 1 min (mm/h) Maxi Mini Moy de 1440 relevés Moy (px+pn)/2 Variation Epaisseur neige (cm) Ensoleillement (h:min) Remarques diverses    
01/09/2022 27,4 17,3 21,44 22,36 22,10 28,2 21,19 17,4 10,1 27,8 17,4 21,44 22,60 94% 49% 78,7% 71,5% 19,4 15,4 17,28 21,86 8,57 WNW 29,0 WNW 11,50 30,2 29 0,0 0,0 0,0 1016,7 1013,4 1014,89 1015,05 3,3   5:49 Ciel entre 4/8 et 8/8  
02/09/2022 26,6 14,9 20,38 20,77 21,00 27,3 19,89 14,9 11,7 26,7 15,0 20,45 20,85 93% 57% 80,5% 75,0% 19,5 13,7 16,73 25,08 10,66 WSW 37,0 WSW 13,96 37,9 38 1,6 0,4 12,0 1013,9 1010,8 1012,03 1012,35 3,1   8:17 Averses, ciel entre 2/8 et 7/8 le matin, 5/8 à 7/8 l'après-midi, 8/8 le soir  
03/09/2022 25,8 11,6 18,82 18,72 18,99 25,6 18,34 11,7 14,2 25,9 11,0 18,81 18,45 94% 46% 74,8% 70,0% 19,7 8,6 13,79 28,00 9,41 WSW 43,5 WSW 12,68 43,6 41 0,0 0,0 0,0 1014,6 1011,3 1012,80 1012,95 3,3   10:33 Ciel 6/8 le matin, 6/8 à 0/8 l'après-midi  
04/09/2022 31,1 11,1 20,82 21,08 21,21 32,8 20,58 11,1 20,2 31,3 10,7 20,75 21,00 84% 44% 69,3% 64,0% 18,6 8,3 14,59 21,39 9,42 ENE 38,6 SW 13,12 * 37 0,0 0,0 0,0 1016,6 1013,3 1014,73 1014,95 3,3   9:35 Ciel 6/8 à 4/8 le matin, 4/8 à 3/8 l'après-midi  
05/09/2022 31,1 15,7 21,48 23,42 22,03 32,4 21,12 15,6 15,5 31,1 15,7 21,50 23,40 93% 36% 76,1% 64,5% 20,2 13,6 16,50 26,40 10,45 E 43,5 S 14,72 * 43 2,0 0,4 24,0 1017,4 1014,3 1015,63 1015,85 3,1   11:17 Ciel 8/8 à 3/8 le matin, 1/8 à 2/8 l'après-midi  
06/09/2022 29,1 13,1 19,94 21,11 20,20 29,3 19,28 13,1 16,1 29,5 13,2 19,97 21,35 95% 38% 75,4% 66,5% 20,2 12,2 14,89 36,20 11,23 WSW 49,9 W 14,72 51,9 54 0,0 0,0 0,0 1017,1 1014,3 1015,60 1015,70 2,8   8:20 Ciel entre 3/8 et6/8 le matin, entre 2/8 et 7/8 l'après-midi, 0/8 le soir  
07/09/2022 18,9 15,6 17,15 17,27 17,54 19,6 16,66 14,2 3,2 18,8 15,6 17,10 17,20 94% 87% 91,4% 90,5% 17,7 14,0 15,74 23,78 11,14 SSE 35,4 SSE 15,32 33,7 37 27,2 4,8 60,0 1015,5 1012,0 1013,72 1013,75 3,5   0:19 Ciel entre 7/8 à 8/8, pluie  
08/09/2022 23,1 15,7 18,80 19,38 19,26 24,2 17,04 13,1 7,5 23,2 15,7 18,78 19,45 92% 71% 82,9% 81,5% 18,8 14,2 15,81 40,22 20,39 WSW 59,5 W 25,82 61,0 60 5,8 1,0 48,0 1015,0 1011,7 1013,20 1013,35 3,3   7:33 Ciel entre 5/8 et 8/8, pluie, averses  
09/09/2022 23,2 16,2 18,98 19,71 19,28 23,8 17,35 14,6 7,1 23,2 16,0 18,97 19,60 87% 63% 77,7% 75,0% 16,7 13,9 14,92 36,05 20,00 W 51,5 W 24,34 54,6 55 0,0 0,0 0,0 1019,4 1014,5 1016,97 1016,95 4,9   8:19 Ciel entre 4/8 et 8/8, traces de précipitations le matin  
10/09/2022 24,1 13,6 18,53 18,87 18,84 24,8 18,46 13,7 10,4 24,4 13,4 18,64 18,90 93% 63% 80,4% 78,0% 17,3 12,5 14,95 15,62 6,61 W 22,5 WSW 8,81 22,6 22 0,0 0,0 0,0 1020,2 1018,2 1019,11 1019,20 2,0   5:21 Ciel entre 4/8 et 7/8, 1/8 le soir  
11/09/2022 29,9 14,2 21,66 22,05 21,81 30,2 21,55 14,2 15,9 30,5 13,7 21,59 22,10 94% 40% 66,4% 67,0% 17,2 12,4 14,28 17,22 8,92 ENE 29,0 ESE 12,73 29,3 29 0,0 0,0 0,0 1018,9 1011,4 1015,10 1015,15 7,5   12:03 Ciel 0/8  
12/09/2022 35,6 16,4 24,93 26,00 25,58 37,5 24,80 15,9 19,2 35,6 16,2 24,88 25,90 80% 36% 59,0% 58,0% 18,9 12,2 15,77 28,98 10,45 ENE 46,7 SW 14,53 47,2 48 0,6 0,3 12,0 1011,4 1006,3 1008,33 1008,85 5,1   6:35 Ciel 0/8 à 5/8 le matin,5/8 à 8/8 ensuite, pluie le soir  
13/09/2022 32,0 19,0 24,90 25,48 25,98 34,6 24,47 19,0 12,8 31,9 19,0 24,90 25,45 89% 43% 68,6% 66,0% 21,3 16,1 18,40 35,41 13,79 SSW 51,5 SSE 19,78 49,7 49 0,0 0,0 0,0 1009,0 1003,4 1005,17 1006,20 5,6   3:37 Ciel entre 6/8 et 8/8, orage le soir, traces de précipitations  
14/09/2022 28,4 16,8 21,65 22,58 22,45 29,6 21,42 16,8 11,5 28,7 16,8 21,69 22,75 92% 56% 78,5% 74,0% 20,7 15,2 17,57 26,71 10,03 SE 40,2 WSW 13,61 40,9 41 0,0 0,0 0,0 1010,3 1004,0 1006,35 1007,15 6,3   6:41 Ciel entre 3/8 et 6/8  
15/09/2022 25,9 16,4 20,54 21,13 21,18 26,3 19,97 14,3 9,5 25,9 16,4 20,52 21,15 92% 54% 79,5% 73,0% 19,1 12,6 16,76 21,22 12,84 WNW 29,0 NW 16,28 29,8 29 0,0 0,0 0,0 1015,2 1010,1 1012,36 1012,65 5,1   4:26 Ciel entre 6/8 et 8/8, 2/8 en milieu d'après-midi  
16/09/2022 21,5 12,0 16,47 16,72 15,98 20,6 15,52 10,5 9,7 21,4 12,0 16,46 16,70 89% 43% 64,7% 66,0% 12,6 6,3 9,39 21,71 13,28 N 33,8 N 17,70 35,8 37 0,0 0,0 0,0 1020,5 1015,2 1017,21 1017,85 5,3   9:16 Ciel 0/8 à 3/8 le matin, entre 3/8 et 6/8 l'après-midi  
17/09/2022 20,1 6,5 14,23 13,32 12,98 18,9 12,86 5,6 13,4 20,2 6,2 14,21 13,20 89% 40% 63,4% 64,5% 9,0 4,1 6,19 18,98 9,87 NE 32,2 ENE 13,37 33,5 31 0,0 0,0 0,0 1023,1 1020,5 1021,61 1021,80 2,6   11:43 Cie 0/8 le matin, entre 0/8 et 2/8 l'après-midi  
18/09/2022 22,3 5,7 14,26 13,98 13,48 20,9 13,47 4,4 16,6 22,4 5,4 14,19 13,90 85% 32% 58,3% 58,5% 7,3 3,0 5,34 19,62 10,56 NE 32,2 NE 14,27 31,3 31 0,0 0,0 0,0 1022,4 1019,0 1021,00 1020,70 3,4   11:40 Ciel 0/8  
19/09/2022 22,3 9,1 15,40 15,69 14,80 21,5 14,00 6,7 13,2 22,4 9,1 15,37 15,75 83% 42% 61,4% 62,5% 9,6 5,5 7,51 25,25 14,56 NE 41,8 ENE 19,75 45,9 44 0,0 0,0 0,0 1023,3 1020,3 1021,43 1021,80 3,0   11:37 Ciel 0/8  
20/09/2022 22,0 7,9 15,26 14,98 14,61 21,0 14,13 6,4 14,1 22,1 7,8 15,24 14,95 83% 38% 60,1% 60,5% 8,9 4,9 7,09 24,29 13,29 NNE 40,2 NE 17,75 40,5 39 0,0 0,0 0,0 1024,3 1021,6 1023,02 1022,95 2,7   11:29 Ciel 0/8 le matin, 0/8 à 2/8 l'après-midi  
21/09/2022 22,7 9,7 15,88 16,19 15,25 22,1 14,81 7,8 13,1 22,9 9,6 15,86 16,25 81% 39% 59,5% 60,0% 9,4 6,2 7,49 23,16 13,05 NE 40,2 E 17,74 40,5 39 0,0 0,0 0,0 1023,7 1020,2 1021,99 1021,95 3,5   11:30 Ciel 0/8  
22/09/2022 24,5 8,9 16,05 16,70 15,58 23,8 15,52 7,7 15,7 24,8 9,0 16,01 16,90 78% 31% 59,4% 54,5% 11,0 5,1 7,36 18,34 9,50 NNE 27,4 NE 12,79 27,9 27 0,0 0,0 0,0 1021,2 1017,7 1019,25 1019,45 3,5   11:02 Ciel 0/8, 4/8 le soir, voilé  
23/09/2022 22,3 10,0 15,89 16,16 15,46 21,4 15,76 9,7 12,2 22,6 9,8 15,80 16,20 86% 39% 64,8% 62,5% 12,9 6,3 8,78 19,62 5,99 WNW 27,4 WNW 7,86 29,0 28 0,0 0,0 0,0 1017,7 1014,8 1016,14 1016,25 2,9   0:44 Ciel entre 6/8 et 8/8  
24/09/2022 21,1 11,4 14,84 16,23 14,88 20,6 14,55 11,4 9,7 21,2 11,3 14,77 16,25 92% 58% 82,4% 75,0% 14,3 9,4 11,79 23,96 7,13 NNW 33,8 W 9,77 36,7 34 2,4 0,7 12,0 1016,0 1013,2 1014,44 1014,60 2,8   2:35 Ciel entre 4/8 et 8/8, averses  
25/09/2022 19,5 6,7 12,29 13,08 12,41 19,3 12,12 6,3 12,6 19,8 6,3 12,33 13,05 94% 63% 87,8% 78,5% 13,9 5,6 10,30 14,82 3,92 NNW 24,1 ENE 5,49 23,5 21 2,0 0,5 12,0 1017,8 1015,4 1016,53 1016,60 2,4   1:20 Ciel entre 5/8 et 8/8, averses  
26/09/2022 19,3 8,2 13,44 13,75 13,50 19,3 11,75 7,2 11,1 19,4 7,9 13,39 13,65 93% 63% 84,5% 78,0% 14,6 7,2 10,80 47,82 16,67 WSW 64,4 W 21,51 68,6 68 5,8 1,1 24,0 1017,2 1008,3 1012,43 1012,75 8,9   0:22 Ciel entre 4/8 et 8/8, pluie l'après-midi  
27/09/2022 18,7 8,1 14,93 13,39 14,97 18,6 12,43 6,8 10,4 18,6 8,1 14,91 13,35 93% 59% 81,6% 76,0% 15,6 6,5 11,73 41,68 22,81 W 57,9 W 29,05 60,6 62 2,2 0,9 12,0 1012,9 1007,7 1010,95 1010,30 5,2   2:26 Ciel entre 4/8 et 8/8, pluie en fin d'après-midi  
28/09/2022 18,9 12,6 15,78 15,73 15,96 19,4 12,81 10,2 6,2 18,8 12,7 15,76 15,75 92% 80% 85,6% 86,0% 16,3 9,9 13,42 41,04 25,93 WNW 59,5 WSW 33,18 59,6 61 7,8 1,0 60,0 1007,8 1002,9 1004,79 1005,35 4,9   1:59 Ciel entre 5/8 et 8/8, averses  
                                                                                 
                                                                                 
                                                                                 
  Température (°C) - Abri Young à ventilation mécanique 43502 (moy/5min)  Davis 7714 (moy/1min) Humidité Vent Davis (km/h) PeetBros Instromet Précipitations (mm) Pression (hPa) Divers  
PT1000 Maxi USCRN /5min Mini  USCRN /5min Moy de 1440 relevés Moy (tx+tn)/2 Index chaleur moyen Index chaleur maxi Froid dû au vent moy/5min  Froid dû au vent mini/5min   Amplitude (tx-tn) Tx OMM/1min Tn OMM/1min Moy de 1440 relevés Moy (tx+tn)/2 Relative maxi Relative mini Relative moy de 1440 relevés Relative moy (hx+hn)/2 Point de rosée maxi Point de rosée mini Point de rosée moy 1440 relevés Vent moy maxi (10min) Vent  moyen (24h) Direction dominante Rafales (km/h) maxi Direction rafale maxi Rafales moy (24h) Rafales (km/h)   maxi Rafales (km/h)   maxi Total du jour (mm) Durée en heures et dixièmes Intensité maxi sur 1 min (mm/h) Maxi Mini Moy de 1440 relevés Moy (px+pn)/2 Variation Epaisseur neige (cm) Ensoleillement (h:min) Remarques diverses  
Maxi 35,6 19,0 24,93 26,00 25,98 37,5 24,80 19,0 20,2 35,6 19,0 24,90 25,90 95% 87% 91,4% 90,5% 21,3 16,1 18,40 47,82 25,93 NE 64,4 W 33,18 68,6 68 27,2 4,8 60,0 1024,3 1021,6 1023,02 1022,95 8,9 0,0 12:03    
Mini 18,7 5,7 12,29 13,08 12,41 18,6 11,75 4,4 3,2 18,6 5,4 12,33 13,05 78% 31% 58,3% 54,5% 7,3 3,0 5,34 14,82 3,92   22,5   5,49 22,6 21       1007,8 1002,9 1004,79 1005,35 2,0        
Moy 24,55 12,30 18,03 18,42 18,12 24,77 17,21 11,44 12,25 24,68 12,18 18,01 18,43 89,4% 50,4% 73,3% 69,9% 15,74 9,82 12,68 26,59 12,16   40,06   16,15 40,99 40,5       1017,11 1013,06 1014,89 1015,09 4,05        
Total                                                         57,4 11,1             0,0 196:28:00    
   
Observations    
Jours Rafales >= 36,0 km/h Rafales >= 57,6 km/h Rafales >= 75,6 km/h Rafales >= 100,8 km/h Précipi. >= 0,1 mm Précipi. >= 1,0 mm Précipi. >= 5,0 mm Précipi. >= 10,0 mm Tx <= 0 Tx <= -5 Tx <= -10 Tx >= 20 Tx >= 25 Tx >= 30 Tx >= 35 Tx >= 40 Tn <= 0 Tn <= -5 Tn <= -10 Tn <= -15 Tn <= -20 T moy <= 0 T moy <=     -5 T moy <=     -10 T moy >= 20 T moy >= 25 T moy >= 30 Grêle Grésil Brouillard Brume Orage Neige        
01/09/2022 0 0 0 0 0 0 0 0 0 0 0 1 1 0 0 0 0 0 0 0 0 0 0 0 0 0 0 0 0 0 0 0 0    
02/09/2022 1 0 0 0 1 1 0 0 0 0 0 1 1 0 0 0 0 0 0 0 0 0 0 0 0 0 0 0 0 0 0 0 0    
03/09/2022 1 0 0 0 0 0 0 0 0 0 0 1 1 0 0 0 0 0 0 0 0 0 0 0 0 0 0 0 0 0 0 0 0    
04/09/2022 1 0 0 0 0 0 0 0 0 0 0 1 1 1 0 0 0 0 0 0 0 0 0 0 0 0 0 0 0 0 0 0 0    
05/09/2022 1 0 0 0 1 1 0 0 0 0 0 1 1 1 0 0 0 0 0 0 0 0 0 0 0 0 0 0 0 0 0 0 0    
06/09/2022 1 0 0 0 0 0 0 0 0 0 0 1 1 0 0 0 0 0 0 0 0 0 0 0 0 0 0 0 0 0 0 0 0    
07/09/2022 0 0 0 0 1 1 1 1 0 0 0 0 0 0 0 0 0 0 0 0 0 0 0 0 0 0 0 0 0 0 0 0 0    
08/09/2022 1 1 0 0 1 1 1 0 0 0 0 1 0 0 0 0 0 0 0 0 0 0 0 0 0 0 0 0 0 0 0 0 0    
09/09/2022 1 0 0 0 0 0 0 0 0 0 0 1 0 0 0 0 0 0 0 0 0 0 0 0 0 0 0 0 0 0 0 0 0    
10/09/2022 0 0 0 0 0 0 0 0 0 0 0 1 0 0 0 0 0 0 0 0 0 0 0 0 0 0 0 0 0 0 0 0 0    
11/09/2022 0 0 0 0 0 0 0 0 0 0 0 1 1 0 0 0 0 0 0 0 0 0 0 0 0 0 0 0 0 0 0 0 0    
12/09/2022 1 0 0 0 1 0 0 0 0 0 0 1 1 1 1 0 0 0 0 0 0 0 0 0 0 0 0 0 0 0 0 0 0    
13/09/2022 1 0 0 0 0 0 0 0 0 0 0 1 1 1 0 0 0 0 0 0 0 0 0 0 0 0 0 0 0 0 0 1 0    
14/09/2022 1 0 0 0 0 0 0 0 0 0 0 1 1 0 0 0 0 0 0 0 0 0 0 0 0 0 0 0 0 0 0 0 0    
15/09/2022 0 0 0 0 0 0 0 0 0 0 0 1 1 0 0 0 0 0 0 0 0 0 0 0 0 0 0 0 0 0 0 0 0    
16/09/2022 0 0 0 0 0 0 0 0 0 0 0 1 0 0 0 0 0 0 0 0 0 0 0 0 0 0 0 0 0 0 0 0 0    
17/09/2022 0 0 0 0 0 0 0 0 0 0 0 1 0 0 0 0 0 0 0 0 0 0 0 0 0 0 0 0 0 0 0 0 0    
18/09/2022 0 0 0 0 0 0 0 0 0 0 0 1 0 0 0 0 0 0 0 0 0 0 0 0 0 0 0 0 0 0 0 0 0    
19/09/2022 1 0 0 0 0 0 0 0 0 0 0 1 0 0 0 0 0 0 0 0 0 0 0 0 0 0 0 0 0 0 0 0 0    
20/09/2022 1 0 0 0 0 0 0 0 0 0 0 1 0 0 0 0 0 0 0 0 0 0 0 0 0 0 0 0 0 0 0 0 0    
21/09/2022 1 0 0 0 0 0 0 0 0 0 0 1 0 0 0 0 0 0 0 0 0 0 0 0 0 0 0 0 0 0 0 0 0    
22/09/2022 0 0 0 0 0 0 0 0 0 0 0 1 0 0 0 0 0 0 0 0 0 0 0 0 0 0 0 0 0 0 0 0 0    
23/09/2022 0 0 0 0 0 0 0 0 0 0 0 1 0 0 0 0 0 0 0 0 0 0 0 0 0 0 0 0 0 0 0 0 0    
24/09/2022 0 0 0 0 1 1 0 0 0 0 0 1 0 0 0 0 0 0 0 0 0 0 0 0 0 0 0 0 0 0 0 0 0    
25/09/2022 0 0 0 0 1 1 0 0 0 0 0 0 0 0 0 0 0 0 0 0 0 0 0 0 0 0 0 0 0 0 0 0 0    
26/09/2022 1 1 0 0 1 1 1 0 0 0 0 0 0 0 0 0 0 0 0 0 0 0 0 0 0 0 0 0 0 0 0 0 0    
27/09/2022 1 1 0 0 1 1 0 0 0 0 0 0 0 0 0 0 0 0 0 0 0 0 0 0 0 0 0 0 0 0 0 0 0    
28/09/2022 1 1 0 0 1 1 1 0 0 0 0 0 0 0 0 0 0 0 0 0 0 0 0 0 0 0 0 0 0 0 0 0 0    
                                                                           
                                                                       
                                                                       
   
  Rafales >= 36,0 km/h Rafales >= 57,6 km/h Rafales >= 75,6 km/h Rafales >= 100,8 km/h Précipi. >= 0,1 mm Précipi. >= 1,0 mm Précipi. >= 5,0 mm Précipi. >= 10,0 mm Tx <=0 Tx <= -5 Tx <= -10 Tx >= 20 Tx >= 25 Tx >= 30 Tx >= 35 Tx >= 40 Tn <= 0 Tn <= -5 Tn <= -10 Tn <= -15 Tn <= -20 T moy <= 0 T moy <=  -5 T moy <=  -10 T moy >= 20 T moy >= 25 T moy >= 30 Grêle Grésil Brouillard Brume Orage Neige        
Total 16 4 0 0 10 9 4 1 0 0 0 23 11 4 1 0 0 0 0 0 0 0 0 0 0 0 0 0 0 0 0 1 0